Time;durP1;ratioP1;P1;durP2;ratioP2;P2;SDS_P1;SDS_P2;PMS_P1;PMS_P2;Temp;Humidity;BMP_temperature;BMP_pressure;BME280_temperature;BME280_humidity;BME280_pressure;Samples;Min_cycle;Max_cycle;Signal;HPM_P1;HPM_P2
2020/12/17 00:04:19;;;;;;;16.77;14.97;;;7.20;99.90;;;;;;10372931;28;20282;-79
2020/12/17 00:09:22;;;;;;;15.90;14.30;;;7.20;99.90;;;;;;10350799;28;20224;-80
2020/12/17 00:14:24;;;;;;;16.90;15.10;;;7.20;99.90;;;;;;10296742;28;20325;-79
2020/12/17 00:19:26;;;;;;;15.77;14.07;;;7.20;99.90;;;;;;10312933;28;20207;-80
2020/12/17 00:24:29;;;;;;;15.87;14.37;;;7.20;99.90;;;;;;10297488;28;20231;-80
2020/12/17 00:29:31;;;;;;;14.83;13.43;;;7.20;99.90;;;;;;10297863;28;20211;-79
2020/12/17 00:34:32;;;;;;;14.40;12.90;;;7.20;99.90;;;;;;10315359;28;20346;-79
2020/12/17 00:39:35;;;;;;;14.37;12.93;;;7.20;99.90;;;;;;10314828;28;20195;-79
2020/12/17 00:44:37;;;;;;;15.17;13.60;;;7.20;99.90;;;;;;10314743;28;20212;-79
2020/12/17 00:49:39;;;;;;;13.17;11.90;;;7.20;99.90;;;;;;10299347;28;20306;-80
2020/12/17 00:54:42;;;;;;;13.23;12.03;;;7.20;99.90;;;;;;10332786;28;20243;-79
2020/12/17 00:59:44;;;;;;;13.50;12.27;;;7.10;99.90;;;;;;10315983;28;20203;-80
2020/12/17 01:04:46;;;;;;;13.90;12.60;;;7.00;99.90;;;;;;10315587;28;20466;-80
2020/12/17 01:09:49;;;;;;;14.30;12.90;;;6.90;99.90;;;;;;10341379;28;20195;-78
2020/12/17 01:14:50;;;;;;;13.57;12.37;;;6.80;99.90;;;;;;10329106;28;20242;-80
2020/12/17 01:19:52;;;;;;;13.93;12.70;;;6.70;99.90;;;;;;10376865;28;20186;-79
2020/12/17 01:24:55;;;;;;;12.43;11.23;;;6.60;99.90;;;;;;10357332;28;20215;-78
2020/12/17 01:29:57;;;;;;;12.83;11.73;;;6.50;99.90;;;;;;10341783;28;20557;-80
2020/12/17 01:34:59;;;;;;;13.53;12.13;;;6.50;99.90;;;;;;10275656;28;20224;-79
2020/12/17 01:40:02;;;;;;;12.30;11.17;;;6.40;99.90;;;;;;10264089;28;20255;-79
2020/12/17 01:45:06;;;;;;;11.63;10.53;;;6.30;99.90;;;;;;10285758;28;20730;-79
2020/12/17 01:50:08;;;;;;;11.27;10.17;;;6.30;99.90;;;;;;10301395;28;20198;-79
2020/12/17 01:55:11;;;;;;;13.60;12.20;;;6.30;99.90;;;;;;10358620;28;20629;-79
2020/12/17 02:00:14;;;;;;;13.33;12.00;;;6.30;99.90;;;;;;10340101;28;20261;-79
2020/12/17 02:05:16;;;;;;;13.43;12.10;;;6.30;99.90;;;;;;10340162;28;20217;-80
2020/12/17 02:10:20;;;;;;;12.43;11.33;;;6.20;99.90;;;;;;10345824;28;20273;-80
2020/12/17 02:15:22;;;;;;;12.40;11.30;;;6.20;99.90;;;;;;10361280;28;20230;-80
2020/12/17 02:20:24;;;;;;;12.07;10.87;;;6.10;99.90;;;;;;10356632;28;20213;-79
2020/12/17 02:25:27;;;;;;;12.17;11.17;;;6.10;99.90;;;;;;10341109;28;20214;-79
2020/12/17 02:30:29;;;;;;;12.17;10.87;;;6.00;99.90;;;;;;10315304;28;20234;-81
2020/12/17 02:35:30;;;;;;;11.70;10.50;;;6.00;99.90;;;;;;10279906;28;20314;-81
2020/12/17 02:40:34;;;;;;;11.27;10.27;;;6.00;99.90;;;;;;10268479;28;20235;-82
2020/12/17 02:45:35;;;;;;;9.50;8.70;;;6.00;99.90;;;;;;10300424;28;20522;-81
2020/12/17 02:50:38;;;;;;;11.43;10.43;;;6.00;99.90;;;;;;10265735;28;20200;-81
2020/12/17 02:55:40;;;;;;;11.33;10.33;;;6.00;99.90;;;;;;10302830;28;20219;-82
2020/12/17 03:00:42;;;;;;;10.90;9.90;;;6.00;99.90;;;;;;10289058;28;20269;-81
2020/12/17 03:05:44;;;;;;;9.90;9.10;;;6.00;99.90;;;;;;10341636;28;20215;-81
2020/12/17 03:10:47;;;;;;;11.23;10.13;;;6.00;99.90;;;;;;10322721;28;20187;-82
2020/12/17 03:15:48;;;;;;;10.83;9.73;;;5.90;99.90;;;;;;10323098;28;20234;-81
2020/12/17 03:20:50;;;;;;;10.67;9.67;;;5.90;99.90;;;;;;10345468;28;20206;-81
2020/12/17 03:25:53;;;;;;;10.10;9.20;;;5.90;99.90;;;;;;10323700;28;20294;-81
2020/12/17 03:30:54;;;;;;;10.23;9.23;;;5.90;99.90;;;;;;10338620;28;20286;-80
2020/12/17 03:35:56;;;;;;;10.07;9.20;;;5.90;99.90;;;;;;10306033;28;20282;-81
2020/12/17 03:40:59;;;;;;;10.97;10.00;;;5.80;99.90;;;;;;10304702;28;20210;-81
2020/12/17 03:46:00;;;;;;;9.50;8.60;;;5.80;99.90;;;;;;10304805;28;20216;-80
2020/12/17 03:51:02;;;;;;;9.37;8.57;;;5.80;99.90;;;;;;10304566;28;20195;-80
2020/12/17 03:56:05;;;;;;;10.13;9.20;;;5.80;99.90;;;;;;10323431;28;20219;-81
2020/12/17 04:01:07;;;;;;;9.00;8.30;;;5.80;99.90;;;;;;10340472;28;20199;-81
2020/12/17 04:06:08;;;;;;;8.83;8.10;;;5.80;99.90;;;;;;10320962;28;20207;-80
2020/12/17 04:11:11;;;;;;;9.30;8.50;;;5.70;99.90;;;;;;10306900;28;20200;-80
2020/12/17 04:16:12;;;;;;;9.40;8.50;;;5.80;99.90;;;;;;10323216;28;20243;-81
2020/12/17 04:21:14;;;;;;;10.57;9.57;;;5.80;99.90;;;;;;10302917;28;20231;-82
2020/12/17 04:26:17;;;;;;;10.57;9.67;;;5.80;99.90;;;;;;10261997;28;20307;-82
2020/12/17 04:31:19;;;;;;;11.70;10.50;;;5.80;99.90;;;;;;10321783;28;20207;-81
2020/12/17 04:36:20;;;;;;;10.33;9.33;;;5.80;99.90;;;;;;10314406;28;20231;-80
2020/12/17 04:41:25;;;;;;;10.30;9.40;;;5.80;99.90;;;;;;10314001;28;20203;-80
2020/12/17 04:46:27;;;;;;;10.27;9.37;;;5.80;99.90;;;;;;10299557;28;20212;-82
2020/12/17 04:51:30;;;;;;;10.70;9.70;;;5.90;99.90;;;;;;10314541;28;20226;-82
2020/12/17 04:56:41;;;;;;;11.37;10.23;;;5.90;99.90;;;;;;10332411;28;20715;-82
2020/12/17 05:01:49;;;;;;;11.50;10.27;;;6.00;99.90;;;;;;10331786;28;20664;-82
2020/12/17 05:06:52;;;;;;;11.10;10.10;;;6.00;99.90;;;;;;10293658;28;20769;-81
2020/12/17 05:11:56;;;;;;;12.43;11.23;;;6.10;99.90;;;;;;10313817;28;20686;-81
2020/12/17 05:16:58;;;;;;;12.30;11.10;;;6.20;99.90;;;;;;10321416;28;20823;-82
2020/12/17 05:22:01;;;;;;;11.23;10.10;;;6.20;99.90;;;;;;10341417;28;20199;-82
2020/12/17 05:27:04;;;;;;;12.47;11.27;;;6.20;99.90;;;;;;10310267;28;20222;-83
2020/12/17 05:32:06;;;;;;;11.50;10.40;;;6.30;99.90;;;;;;10338446;28;20210;-82
2020/12/17 05:37:08;;;;;;;12.33;11.13;;;6.30;99.90;;;;;;10360656;28;20247;-81
2020/12/17 05:42:22;;;;;;;10.40;9.50;;;6.30;99.90;;;;;;10373976;28;20201;-82
2020/12/17 05:47:24;;;;;;;12.17;10.97;;;6.40;99.90;;;;;;10363308;28;20703;-82
2020/12/17 05:52:27;;;;;;;12.00;10.73;;;6.40;99.90;;;;;;10343112;28;20290;-81
2020/12/17 05:57:30;;;;;;;12.10;10.90;;;6.40;99.90;;;;;;10332298;28;20231;-80
2020/12/17 06:02:33;;;;;;;12.67;11.47;;;6.40;99.90;;;;;;10304100;28;20735;-81
2020/12/17 06:07:49;;;;;;;12.63;11.43;;;6.50;99.90;;;;;;10313880;28;20867;-81
2020/12/17 06:12:52;;;;;;;11.30;10.20;;;6.60;99.90;;;;;;10336310;28;20282;-82
2020/12/17 06:17:55;;;;;;;12.83;10.93;;;6.60;99.90;;;;;;10338754;28;20234;-82
2020/12/17 06:22:58;;;;;;;10.70;9.70;;;6.70;99.90;;;;;;10310867;28;20225;-81
2020/12/17 06:28:01;;;;;;;10.33;9.23;;;6.80;99.90;;;;;;10284074;28;20195;-83
2020/12/17 06:33:05;;;;;;;8.47;7.73;;;6.90;99.90;;;;;;10324643;28;20286;-82
2020/12/17 06:38:08;;;;;;;8.67;7.87;;;6.90;99.90;;;;;;10289300;28;20210;-82
2020/12/17 06:43:29;;;;;;;7.70;7.00;;;7.10;99.90;;;;;;10317284;28;20199;-81
2020/12/17 06:48:33;;;;;;;7.63;6.97;;;7.20;99.90;;;;;;10319073;28;20199;-82
2020/12/17 06:53:39;;;;;;;7.97;7.27;;;7.20;99.90;;;;;;10304363;28;20578;-83
2020/12/17 06:58:42;;;;;;;7.63;6.93;;;7.30;99.90;;;;;;10350939;28;20206;-83
2020/12/17 07:03:48;;;;;;;7.63;6.83;;;7.30;99.90;;;;;;10314544;28;20227;-82
2020/12/17 07:08:51;;;;;;;7.30;6.00;;;7.30;99.90;;;;;;10311192;28;20199;-83
2020/12/17 07:13:55;;;;;;;4.50;4.10;;;7.20;99.90;;;;;;10315524;28;20230;-83
2020/12/17 07:19:18;;;;;;;7.80;6.20;;;7.30;99.90;;;;;;10317301;28;20560;-83
2020/12/17 07:24:28;;;;;;;8.47;6.77;;;7.30;99.90;;;;;;10321382;28;20211;-82
2020/12/17 07:29:47;;;;;;;6.00;5.43;;;7.40;99.90;;;;;;10306536;28;20286;-83
2020/12/17 07:34:49;;;;;;;5.20;4.80;;;7.50;99.90;;;;;;10303760;28;20314;-81
2020/12/17 07:39:52;;;;;;;4.20;3.90;;;7.60;99.90;;;;;;10307788;28;20225;-83
2020/12/17 07:44:54;;;;;;;4.90;4.50;;;7.60;99.90;;;;;;10317472;28;20215;-82
2020/12/17 07:49:56;;;;;;;6.07;5.47;;;7.70;99.90;;;;;;10319358;28;20201;-83
2020/12/17 07:54:58;;;;;;;5.80;5.20;;;7.70;99.90;;;;;;10320508;28;20218;-83
2020/12/17 08:00:00;;;;;;;6.70;4.97;;;7.80;99.90;;;;;;10307463;28;20215;-83
2020/12/17 08:05:02;;;;;;;4.77;4.30;;;8.00;99.90;;;;;;10275794;28;20718;-82
2020/12/17 08:10:05;;;;;;;3.90;3.60;;;8.00;99.90;;;;;;10275912;28;20192;-82
2020/12/17 08:15:08;;;;;;;3.80;3.50;;;8.10;99.90;;;;;;10293385;28;20239;-83
2020/12/17 08:20:14;;;;;;;3.90;3.60;;;8.20;99.90;;;;;;10323410;28;20293;-82
2020/12/17 08:25:17;;;;;;;3.57;3.27;;;8.30;99.90;;;;;;10345674;28;20211;-83
2020/12/17 08:30:22;;;;;;;5.10;4.67;;;8.50;99.90;;;;;;10335169;28;20258;-81
2020/12/17 08:35:25;;;;;;;4.77;4.37;;;8.60;99.90;;;;;;10304635;28;20231;-82
2020/12/17 08:40:29;;;;;;;3.70;3.40;;;8.70;99.90;;;;;;10317763;28;20223;-81
2020/12/17 08:45:31;;;;;;;3.93;3.63;;;8.80;99.90;;;;;;10297526;28;20606;-80
2020/12/17 08:50:34;;;;;;;3.53;3.33;;;8.80;99.90;;;;;;10304694;28;20680;-81
2020/12/17 08:55:36;;;;;;;4.40;3.47;;;8.90;99.90;;;;;;10343204;28;20246;-82
2020/12/17 09:00:39;;;;;;;3.17;2.97;;;9.10;99.90;;;;;;10306195;28;20592;-80
2020/12/17 09:05:41;;;;;;;2.83;2.63;;;9.20;99.90;;;;;;10283691;28;20263;-81
2020/12/17 09:10:42;;;;;;;3.00;2.80;;;9.30;99.90;;;;;;10295085;28;20206;-81
2020/12/17 09:15:45;;;;;;;3.57;3.27;;;9.50;99.90;;;;;;10385944;28;20218;-83
2020/12/17 09:20:46;;;;;;;3.40;3.17;;;9.60;99.90;;;;;;10356048;28;20203;-83
2020/12/17 09:25:48;;;;;;;3.10;2.90;;;9.60;99.90;;;;;;10336697;28;20735;-82
2020/12/17 09:30:50;;;;;;;3.90;3.60;;;9.60;99.90;;;;;;10319652;28;20199;-83
2020/12/17 09:35:52;;;;;;;4.73;4.37;;;9.60;99.90;;;;;;10320958;28;20226;-81
2020/12/17 09:40:54;;;;;;;4.90;4.40;;;9.50;99.90;;;;;;10322692;28;20238;-82
2020/12/17 09:45:58;;;;;;;4.10;3.70;;;9.30;99.90;;;;;;10363678;28;20708;-81
2020/12/17 09:51:02;;;;;;;4.47;4.00;;;9.10;99.90;;;;;;10328893;28;20203;-81
2020/12/17 09:56:04;;;;;;;4.07;3.77;;;9.00;99.90;;;;;;10357538;28;20357;-81
2020/12/17 10:01:06;;;;;;;4.70;4.33;;;9.00;99.90;;;;;;10320867;28;20517;-82
2020/12/17 10:06:08;;;;;;;8.17;4.70;;;8.90;99.90;;;;;;10313668;28;20225;-82
2020/12/17 10:11:10;;;;;;;4.07;3.77;;;9.00;99.90;;;;;;10365589;28;20206;-81
2020/12/17 10:16:17;;;;;;;4.60;4.10;;;9.00;99.90;;;;;;10360402;28;20589;-81
2020/12/17 10:21:18;;;;;;;4.50;4.10;;;9.10;99.90;;;;;;10340528;28;20575;-81
2020/12/17 10:26:20;;;;;;;5.27;3.87;;;9.30;99.90;;;;;;10344223;28;20253;-84
2020/12/17 10:31:22;;;;;;;3.73;3.30;;;9.50;99.90;;;;;;10327866;28;20643;-84
2020/12/17 10:36:24;;;;;;;3.93;3.60;;;9.70;99.90;;;;;;10345322;28;20282;-84
2020/12/17 10:41:27;;;;;;;3.80;3.50;;;9.90;99.90;;;;;;10347404;28;20199;-84
2020/12/17 10:46:31;;;;;;;3.80;3.40;;;10.10;99.90;;;;;;10313207;28;20677;-82
2020/12/17 10:51:33;;;;;;;3.50;3.20;;;10.10;99.90;;;;;;10336776;28;20413;-82
2020/12/17 10:56:35;;;;;;;3.73;3.37;;;10.00;99.90;;;;;;10343566;28;20223;-84
2020/12/17 11:01:38;;;;;;;6.87;3.70;;;10.00;99.90;;;;;;10297258;28;20223;-80
2020/12/17 11:06:40;;;;;;;4.10;3.80;;;10.00;99.90;;;;;;10295159;28;20215;-83
2020/12/17 11:11:42;;;;;;;5.20;4.77;;;10.00;99.90;;;;;;10345715;28;20196;-82
2020/12/17 11:16:44;;;;;;;3.67;3.30;;;10.20;99.90;;;;;;10349112;28;20275;-82
2020/12/17 11:21:46;;;;;;;3.70;3.40;;;10.40;99.90;;;;;;10360847;28;20297;-81
2020/12/17 11:26:48;;;;;;;5.40;3.00;;;10.60;99.90;;;;;;10333090;28;20685;-81
2020/12/17 11:31:51;;;;;;;6.37;3.53;;;10.80;99.90;;;;;;10341946;28;20626;-82
2020/12/17 11:36:52;;;;;;;3.40;3.20;;;10.90;99.90;;;;;;10325025;28;20211;-82
2020/12/17 11:41:54;;;;;;;4.93;3.73;;;10.90;99.90;;;;;;10338862;28;20276;-83
2020/12/17 11:46:57;;;;;;;3.50;3.20;;;10.90;99.90;;;;;;10306835;28;20641;-81
2020/12/17 11:52:04;;;;;;;4.07;3.77;;;11.00;99.90;;;;;;10302950;28;20223;-83
2020/12/17 11:57:06;;;;;;;4.53;4.10;;;11.10;99.90;;;;;;10346433;28;20229;-81
2020/12/17 12:02:10;;;;;;;3.83;3.37;;;11.20;99.90;;;;;;10364342;28;20223;-81
2020/12/17 12:07:11;;;;;;;5.83;4.37;;;11.30;99.90;;;;;;10331490;28;20278;-80
2020/12/17 12:12:13;;;;;;;4.60;4.20;;;11.30;99.90;;;;;;10298866;28;20640;-80
2020/12/17 12:17:15;;;;;;;8.70;4.00;;;11.30;99.90;;;;;;10315486;28;20223;-81
2020/12/17 12:22:17;;;;;;;4.67;4.27;;;11.20;99.90;;;;;;10305205;28;20207;-82
2020/12/17 12:27:19;;;;;;;5.63;5.17;;;11.10;99.90;;;;;;10353083;28;20694;-81
2020/12/17 12:32:23;;;;;;;4.20;3.80;;;11.10;99.90;;;;;;10313960;28;20285;-84
2020/12/17 12:37:25;;;;;;;5.30;4.90;;;11.10;99.90;;;;;;10329687;28;20264;-84
2020/12/17 12:42:33;;;;;;;6.93;6.00;;;11.00;99.90;;;;;;10377917;28;20210;-83
2020/12/17 12:47:35;;;;;;;7.53;6.70;;;11.00;99.90;;;;;;10340247;28;20214;-80
2020/12/17 12:52:37;;;;;;;7.23;6.60;;;11.00;99.90;;;;;;10361247;28;20245;-82
2020/12/17 12:57:46;;;;;;;6.40;5.80;;;11.00;99.90;;;;;;10331763;28;20234;-79
2020/12/17 13:02:48;;;;;;;7.13;6.43;;;11.00;99.90;;;;;;10309541;28;20659;-81
2020/12/17 13:07:50;;;;;;;8.20;7.33;;;11.00;99.90;;;;;;10295136;28;20286;-81
2020/12/17 13:12:52;;;;;;;8.20;7.23;;;11.00;99.90;;;;;;10302898;28;20646;-82
2020/12/17 13:17:54;;;;;;;10.23;9.23;;;11.00;99.90;;;;;;10308474;28;20925;-81
2020/12/17 13:22:56;;;;;;;21.60;20.00;;;11.00;99.90;;;;;;10305477;28;20234;-80
2020/12/17 13:27:58;;;;;;;13.73;12.00;;;11.10;99.90;;;;;;10325433;28;20218;-82
2020/12/17 13:33:01;;;;;;;11.60;7.93;;;11.10;99.90;;;;;;10310211;28;20210;-80
2020/12/17 13:38:02;;;;;;;8.17;7.37;;;11.10;99.90;;;;;;10348067;28;20965;-82
2020/12/17 13:43:04;;;;;;;10.63;7.03;;;11.20;99.90;;;;;;10317343;28;20700;-82
2020/12/17 13:48:07;;;;;;;7.70;6.90;;;11.20;99.90;;;;;;10346062;28;20196;-80
2020/12/17 13:53:08;;;;;;;8.27;6.13;;;11.20;99.90;;;;;;10356053;28;20667;-81
2020/12/17 13:58:11;;;;;;;7.67;6.63;;;11.20;99.90;;;;;;10299630;28;20591;-80
2020/12/17 14:03:13;;;;;;;8.43;7.60;;;11.10;99.90;;;;;;10272734;28;20204;-82
2020/12/17 14:08:15;;;;;;;7.80;7.10;;;11.00;99.90;;;;;;10338534;28;20213;-81
2020/12/17 14:13:17;;;;;;;9.80;6.87;;;10.90;99.90;;;;;;10368859;28;20288;-82
2020/12/17 14:18:19;;;;;;;8.00;7.20;;;10.90;99.90;;;;;;10385310;28;20236;-80
2020/12/17 14:23:21;;;;;;;7.13;6.43;;;10.80;99.90;;;;;;10367003;28;20742;-80
2020/12/17 14:28:22;;;;;;;8.37;7.47;;;10.80;99.90;;;;;;10282962;28;20204;-81
2020/12/17 14:33:26;;;;;;;13.43;12.03;;;10.80;99.90;;;;;;10273021;28;20223;-83
2020/12/17 14:38:27;;;;;;;8.43;7.30;;;10.80;99.90;;;;;;10275574;28;20628;-82
2020/12/17 14:43:29;;;;;;;6.83;6.10;;;10.80;99.90;;;;;;10315215;28;20223;-81
2020/12/17 14:48:37;;;;;;;7.33;6.63;;;10.80;99.90;;;;;;10333036;28;20295;-81
2020/12/17 14:53:39;;;;;;;8.77;7.03;;;10.90;99.90;;;;;;10331401;28;20266;-81
2020/12/17 14:58:41;;;;;;;7.87;7.07;;;10.90;99.90;;;;;;10282589;28;20227;-84
2020/12/17 15:03:44;;;;;;;6.37;5.40;;;10.90;99.90;;;;;;10268237;28;20735;-83
2020/12/17 15:08:45;;;;;;;6.07;5.50;;;10.90;99.90;;;;;;10264082;28;20232;-81
2020/12/17 15:13:48;;;;;;;7.70;6.20;;;10.90;99.90;;;;;;10288789;28;20593;-82
2020/12/17 15:18:51;;;;;;;7.10;6.40;;;10.90;99.90;;;;;;10289763;28;20199;-82
2020/12/17 15:23:52;;;;;;;9.90;7.37;;;10.80;99.90;;;;;;10289267;28;20598;-80
2020/12/17 15:28:54;;;;;;;21.20;15.23;;;10.80;99.90;;;;;;10300668;28;20227;-81
2020/12/17 15:33:57;;;;;;;45.07;31.43;;;10.80;99.90;;;;;;10320130;28;20729;-80
2020/12/17 15:38:58;;;;;;;7.17;6.23;;;10.80;99.90;;;;;;10332826;28;20207;-80
2020/12/17 15:44:00;;;;;;;7.97;6.43;;;10.80;99.90;;;;;;10342931;28;20214;-81
2020/12/17 15:49:02;;;;;;;8.73;6.90;;;10.80;99.90;;;;;;10336499;28;20730;-81
2020/12/17 15:54:04;;;;;;;7.90;5.90;;;10.70;99.90;;;;;;10338128;28;20687;-81
2020/12/17 15:59:06;;;;;;;7.40;5.40;;;10.70;99.90;;;;;;10314062;28;20234;-80
2020/12/17 16:04:12;;;;;;;6.50;5.87;;;10.60;99.90;;;;;;10324441;28;20660;-80
2020/12/17 16:09:14;;;;;;;10.30;7.33;;;10.60;99.90;;;;;;10335954;28;20218;-81
2020/12/17 16:14:15;;;;;;;8.07;6.90;;;10.50;99.90;;;;;;10316385;28;20219;-82
2020/12/17 16:19:18;;;;;;;7.63;6.83;;;10.50;99.90;;;;;;10301022;28;20297;-79
2020/12/17 16:24:20;;;;;;;7.00;6.30;;;10.40;99.90;;;;;;10316100;28;20219;-80
2020/12/17 16:29:22;;;;;;;7.30;6.60;;;10.30;99.90;;;;;;10310242;28;20233;-79
2020/12/17 16:34:24;;;;;;;8.67;6.57;;;10.20;99.90;;;;;;10326394;28;20219;-79
2020/12/17 16:39:26;;;;;;;7.57;6.00;;;10.10;99.90;;;;;;10346209;28;20238;-80
2020/12/17 16:44:27;;;;;;;7.17;6.47;;;10.00;99.90;;;;;;10324491;28;20218;-79
2020/12/17 16:49:30;;;;;;;8.60;6.90;;;9.90;99.90;;;;;;10319874;28;20195;-80
2020/12/17 16:54:32;;;;;;;8.30;7.60;;;9.80;99.90;;;;;;10321523;28;20229;-81
2020/12/17 16:59:33;;;;;;;10.03;7.70;;;9.80;99.90;;;;;;10350869;28;20191;-80
2020/12/17 17:04:38;;;;;;;9.20;7.80;;;9.80;99.90;;;;;;10318720;28;20222;-81
2020/12/17 17:09:40;;;;;;;7.87;6.43;;;9.70;99.90;;;;;;10333856;28;20209;-81
2020/12/17 17:14:42;;;;;;;8.30;7.40;;;9.70;99.90;;;;;;10347122;28;20208;-80
2020/12/17 17:19:45;;;;;;;9.07;8.20;;;9.80;99.90;;;;;;10342779;28;20210;-81
2020/12/17 17:24:46;;;;;;;9.83;8.20;;;9.80;99.90;;;;;;10341990;28;20690;-81
2020/12/17 17:29:52;;;;;;;8.03;7.13;;;9.80;99.90;;;;;;10310987;28;20191;-80
2020/12/17 17:34:58;;;;;;;7.27;6.57;;;9.80;99.90;;;;;;10285277;28;20227;-81
2020/12/17 17:40:00;;;;;;;9.30;8.50;;;9.80;99.90;;;;;;10311311;28;20207;-80
2020/12/17 17:45:01;;;;;;;7.27;6.57;;;9.70;99.90;;;;;;10312459;28;20222;-81
2020/12/17 17:50:04;;;;;;;9.80;8.80;;;9.80;99.90;;;;;;10305490;28;20231;-82
2020/12/17 17:55:06;;;;;;;7.63;6.93;;;9.80;99.90;;;;;;10315922;28;20314;-79
2020/12/17 18:00:08;;;;;;;7.60;6.57;;;9.70;99.90;;;;;;10320774;28;20291;-81
2020/12/17 18:05:13;;;;;;;7.07;5.80;;;9.70;99.90;;;;;;10313062;28;20270;-80
2020/12/17 18:10:15;;;;;;;9.43;7.30;;;9.70;99.90;;;;;;10320616;28;20218;-81
2020/12/17 18:15:17;;;;;;;8.77;7.63;;;9.70;99.90;;;;;;10330953;28;20737;-81
2020/12/17 18:20:23;;;;;;;7.40;6.43;;;9.70;99.90;;;;;;10338197;28;20206;-81
2020/12/17 18:25:24;;;;;;;7.93;6.50;;;9.70;99.90;;;;;;10325320;28;20307;-80
2020/12/17 18:30:26;;;;;;;7.97;7.27;;;9.70;99.90;;;;;;10305775;28;20207;-82
2020/12/17 18:35:29;;;;;;;7.73;5.57;;;9.70;99.90;;;;;;10332886;28;21003;-80
2020/12/17 18:40:30;;;;;;;7.23;6.50;;;9.60;99.90;;;;;;10319950;28;20581;-81
2020/12/17 18:45:32;;;;;;;6.70;6.10;;;9.70;99.90;;;;;;10325900;28;20254;-80
2020/12/17 18:50:40;;;;;;;7.47;6.57;;;9.70;99.90;;;;;;10337641;28;20227;-80
2020/12/17 18:55:42;;;;;;;12.03;8.00;;;9.60;99.90;;;;;;10281659;28;20700;-81
2020/12/17 19:00:45;;;;;;;15.07;10.60;;;9.60;99.90;;;;;;10306679;28;20289;-81
2020/12/17 19:05:48;;;;;;;28.80;18.47;;;9.60;99.90;;;;;;10289003;28;20247;-82
2020/12/17 19:10:49;;;;;;;34.20;21.60;;;9.60;99.90;;;;;;10302165;28;21955;-80
2020/12/17 19:15:51;;;;;;;17.43;12.87;;;9.60;99.90;;;;;;10285970;28;20219;-80
2020/12/17 19:20:53;;;;;;;11.10;8.27;;;9.60;99.90;;;;;;10331994;28;20710;-81
2020/12/17 19:25:55;;;;;;;9.70;8.80;;;9.60;99.90;;;;;;10303112;28;20227;-81
2020/12/17 19:30:57;;;;;;;11.90;10.80;;;9.60;99.90;;;;;;10314585;28;20211;-82
2020/12/17 19:35:59;;;;;;;9.63;8.63;;;9.60;99.90;;;;;;10313713;28;20734;-82
2020/12/17 19:41:01;;;;;;;11.03;7.70;;;9.70;99.90;;;;;;10305034;28;20212;-81
2020/12/17 19:46:03;;;;;;;8.63;7.60;;;9.70;99.90;;;;;;10325397;28;20219;-80
2020/12/17 19:51:05;;;;;;;7.80;7.00;;;9.70;99.90;;;;;;10303223;28;20235;-81
2020/12/17 19:56:07;;;;;;;5.67;5.17;;;9.60;99.90;;;;;;10291115;28;20227;-80
2020/12/17 20:01:09;;;;;;;8.57;7.60;;;9.60;99.90;;;;;;10314241;28;20314;-81
2020/12/17 20:06:11;;;;;;;7.83;7.03;;;9.50;99.90;;;;;;10315604;28;20218;-83
2020/12/17 20:11:13;;;;;;;7.27;6.57;;;9.40;99.90;;;;;;10327035;28;20210;-79
2020/12/17 20:16:14;;;;;;;7.30;6.60;;;9.30;99.90;;;;;;10303408;28;20279;-80
2020/12/17 20:21:21;;;;;;;6.87;6.17;;;9.10;99.90;;;;;;10322548;28;20206;-80
2020/12/17 20:26:25;;;;;;;8.10;7.30;;;9.00;99.90;;;;;;10295827;28;20511;-81
2020/12/17 20:31:27;;;;;;;8.30;7.47;;;9.00;99.90;;;;;;10327917;28;20199;-80
2020/12/17 20:36:31;;;;;;;7.13;6.43;;;9.00;99.90;;;;;;10340534;28;20226;-80
2020/12/17 20:41:34;;;;;;;7.33;6.63;;;8.90;99.90;;;;;;10334578;28;20242;-82
2020/12/17 20:46:36;;;;;;;7.00;6.30;;;8.90;99.90;;;;;;10320349;28;20234;-81
2020/12/17 20:51:39;;;;;;;6.07;5.47;;;8.80;99.90;;;;;;10363297;28;20274;-80
2020/12/17 20:56:41;;;;;;;7.67;6.93;;;8.80;99.90;;;;;;10328148;28;20361;-81
2020/12/17 21:01:43;;;;;;;7.30;6.70;;;8.70;99.90;;;;;;10314654;28;20257;-81
2020/12/17 21:06:54;;;;;;;7.30;6.70;;;8.60;99.90;;;;;;10336135;28;20215;-83
2020/12/17 21:11:56;;;;;;;7.23;6.50;;;8.50;99.90;;;;;;10327657;28;20266;-81
2020/12/17 21:16:58;;;;;;;7.57;6.80;;;8.40;99.90;;;;;;10339336;28;20219;-83
2020/12/17 21:22:02;;;;;;;9.60;8.70;;;8.40;99.90;;;;;;10328152;28;20199;-83
2020/12/17 21:27:04;;;;;;;8.53;7.73;;;8.30;99.90;;;;;;10357321;28;20243;-80
2020/12/17 21:32:05;;;;;;;8.70;7.90;;;8.20;99.90;;;;;;10343767;28;20210;-81
2020/12/17 21:37:08;;;;;;;8.43;7.63;;;8.20;99.90;;;;;;10314209;28;20599;-80
2020/12/17 21:42:10;;;;;;;9.80;8.80;;;8.10;99.90;;;;;;10287844;28;20231;-82
2020/12/17 21:47:12;;;;;;;8.57;7.70;;;8.00;99.90;;;;;;10306629;28;20240;-81
2020/12/17 21:52:14;;;;;;;9.80;8.80;;;8.00;99.90;;;;;;10318576;28;20217;-81
2020/12/17 21:57:16;;;;;;;11.03;9.37;;;7.90;99.90;;;;;;10312166;28;20286;-82
2020/12/17 22:02:18;;;;;;;9.60;8.47;;;7.80;99.90;;;;;;10321325;28;20203;-82
2020/12/17 22:07:20;;;;;;;10.37;9.37;;;7.80;99.90;;;;;;10309102;28;20227;-80
2020/12/17 22:12:22;;;;;;;10.50;9.40;;;7.80;99.90;;;;;;10324502;28;20199;-81
2020/12/17 22:17:24;;;;;;;10.80;9.70;;;7.80;99.90;;;;;;10337506;28;20657;-81
2020/12/17 22:22:26;;;;;;;11.30;9.60;;;7.70;99.90;;;;;;10309453;28;20676;-82
2020/12/17 22:27:28;;;;;;;11.70;10.63;;;7.70;99.90;;;;;;10295702;28;20215;-81
2020/12/17 22:32:29;;;;;;;10.67;9.50;;;7.70;99.90;;;;;;10303005;28;20208;-81
2020/12/17 22:37:35;;;;;;;9.90;9.00;;;7.60;99.90;;;;;;10319145;28;20227;-82
2020/12/17 22:42:39;;;;;;;10.73;9.47;;;7.60;99.90;;;;;;10314185;28;20207;-82
2020/12/17 22:47:40;;;;;;;9.83;8.93;;;7.50;99.90;;;;;;10323417;28;20214;-81
2020/12/17 22:52:43;;;;;;;11.30;10.20;;;7.50;99.90;;;;;;10359610;28;20194;-82
2020/12/17 22:57:44;;;;;;;10.40;9.50;;;7.50;99.90;;;;;;10327837;28;20572;-80
2020/12/17 23:02:46;;;;;;;10.03;9.03;;;7.40;99.90;;;;;;10309351;28;20195;-81
2020/12/17 23:07:48;;;;;;;11.00;10.00;;;7.40;99.90;;;;;;10359784;28;20218;-82
2020/12/17 23:12:50;;;;;;;9.63;8.73;;;7.40;99.90;;;;;;10362132;28;20198;-82
2020/12/17 23:17:52;;;;;;;9.83;8.70;;;7.30;99.90;;;;;;10347383;28;20798;-82
2020/12/17 23:22:54;;;;;;;10.00;9.00;;;7.30;99.90;;;;;;10327652;28;20289;-82
2020/12/17 23:27:56;;;;;;;9.80;8.80;;;7.30;99.90;;;;;;10293215;28;20294;-82
2020/12/17 23:32:57;;;;;;;11.00;9.50;;;7.20;99.90;;;;;;10326188;28;20206;-82
2020/12/17 23:38:00;;;;;;;9.77;8.97;;;7.20;99.90;;;;;;10345373;28;20235;-81
2020/12/17 23:43:02;;;;;;;10.17;9.17;;;7.20;99.90;;;;;;10322741;28;20596;-81
2020/12/17 23:48:03;;;;;;;9.27;8.40;;;7.20;99.90;;;;;;10329645;28;20289;-82
2020/12/17 23:53:06;;;;;;;10.97;9.87;;;7.20;99.90;;;;;;10361631;28;20286;-81
2020/12/17 23:58:08;;;;;;;9.90;9.00;;;7.20;99.90;;;;;;10291890;28;20366;-82
